Time;durP1;ratioP1;P1;durP2;ratioP2;P2;SDS_P1;SDS_P2;PMS_P1;PMS_P2;Temp;Humidity;BMP_temperature;BMP_pressure;BME280_temperature;BME280_humidity;BME280_pressure;Samples;Min_cycle;Max_cycle;Signal;HPM_P1;HPM_P2
2022/10/09 00:01:01;;;;;;;15.07;6.20;;;21.30;55.10;;;;;;5126003;28;20564;-83
2022/10/09 00:03:29;;;;;;;7.13;5.57;;;21.30;55.20;;;;;;5124981;27;20459;-81
2022/10/09 00:05:57;;;;;;;12.97;6.23;;;21.20;55.00;;;;;;5135049;27;20452;-82
2022/10/09 00:08:26;;;;;;;8.83;5.07;;;21.20;55.40;;;;;;5141214;27;20945;-82
2022/10/09 00:10:55;;;;;;;9.30;5.37;;;21.20;55.20;;;;;;5128340;27;20463;-81
2022/10/09 00:13:23;;;;;;;18.83;5.33;;;21.20;55.20;;;;;;5136951;27;20820;-81
2022/10/09 00:15:51;;;;;;;11.10;5.30;;;21.10;55.30;;;;;;5135415;27;20443;-82
2022/10/09 00:18:19;;;;;;;9.00;5.17;;;21.10;55.40;;;;;;5127767;27;20447;-82
2022/10/09 00:20:47;;;;;;;10.93;5.60;;;21.10;55.30;;;;;;5138501;27;20475;-82
2022/10/09 00:23:17;;;;;;;14.47;5.33;;;21.10;55.30;;;;;;5135510;27;20482;-83
2022/10/09 00:25:53;;;;;;;12.70;5.87;;;21.10;55.40;;;;;;5143833;27;20454;-82
2022/10/09 00:28:21;;;;;;;10.63;4.87;;;21.10;55.40;;;;;;5134500;27;20455;-82
2022/10/09 00:30:50;;;;;;;9.23;5.03;;;21.10;55.30;;;;;;5139159;27;20439;-81
2022/10/09 00:33:18;;;;;;;9.23;4.80;;;21.10;55.30;;;;;;5136573;27;20443;-81
2022/10/09 00:35:45;;;;;;;8.07;4.93;;;21.00;55.40;;;;;;5136043;27;20497;-81
2022/10/09 00:38:13;;;;;;;8.43;4.10;;;21.00;55.30;;;;;;5144952;27;20445;-81
2022/10/09 00:40:41;;;;;;;8.20;4.40;;;21.00;55.60;;;;;;5138442;27;20477;-81
2022/10/09 00:43:14;;;;;;;6.77;4.57;;;20.90;55.50;;;;;;5141604;27;20443;-82
2022/10/09 00:45:43;;;;;;;6.97;4.40;;;20.90;55.60;;;;;;5125915;27;20462;-81
2022/10/09 00:48:11;;;;;;;5.50;4.20;;;20.90;55.60;;;;;;5126989;27;20458;-81
2022/10/09 00:50:41;;;;;;;4.60;3.93;;;20.90;55.60;;;;;;5143979;27;20434;-80
2022/10/09 00:53:09;;;;;;;15.53;4.83;;;20.90;55.60;;;;;;5150736;27;20428;-82
2022/10/09 00:55:38;;;;;;;8.37;3.93;;;20.90;55.70;;;;;;5142362;27;20455;-79
2022/10/09 00:58:07;;;;;;;5.10;4.10;;;20.90;55.70;;;;;;5126473;28;20454;-81
2022/10/09 01:00:36;;;;;;;9.80;4.07;;;20.90;55.70;;;;;;5148191;27;20467;-80
2022/10/09 01:03:05;;;;;;;7.00;4.30;;;20.90;55.70;;;;;;5143660;28;20462;-81
2022/10/09 01:05:38;;;;;;;8.57;4.30;;;20.80;55.90;;;;;;5141064;28;20451;-82
2022/10/09 01:08:08;;;;;;;7.63;4.40;;;20.80;55.60;;;;;;5148986;28;20443;-80
2022/10/09 01:10:39;;;;;;;6.90;3.73;;;20.80;55.80;;;;;;5139880;28;20453;-81
2022/10/09 01:13:10;;;;;;;13.33;6.63;;;20.80;55.80;;;;;;5148099;28;20480;-80
2022/10/09 01:15:42;;;;;;;18.23;8.90;;;20.80;55.70;;;;;;5136315;28;20446;-81
2022/10/09 01:18:12;;;;;;;8.83;5.47;;;20.80;56.00;;;;;;5142762;28;20917;-79
2022/10/09 01:20:44;;;;;;;7.80;5.60;;;20.70;55.70;;;;;;5149310;28;20462;-80
2022/10/09 01:23:48;;;;;;;9.63;5.40;;;20.70;55.90;;;;;;5149577;28;20442;-82
2022/10/09 01:26:35;;;;;;;10.87;4.80;;;20.70;55.90;;;;;;5139773;28;20449;-83
2022/10/09 01:29:06;;;;;;;8.70;4.57;;;20.70;55.90;;;;;;5132511;28;20453;-84
2022/10/09 01:31:37;;;;;;;11.30;4.90;;;20.60;55.90;;;;;;5139397;28;20485;-83
2022/10/09 01:34:05;;;;;;;5.40;4.43;;;20.60;56.00;;;;;;5141507;28;20442;-83
2022/10/09 01:36:33;;;;;;;6.63;4.03;;;20.60;56.10;;;;;;5135377;28;20462;-82
2022/10/09 01:39:02;;;;;;;9.53;4.40;;;20.60;56.00;;;;;;5139840;27;20458;-83
2022/10/09 01:41:30;;;;;;;8.53;4.00;;;20.60;56.00;;;;;;5136724;27;20475;-82
2022/10/09 01:43:58;;;;;;;6.40;3.90;;;20.50;55.90;;;;;;5139991;27;20458;-82
2022/10/09 01:46:29;;;;;;;5.93;3.77;;;20.50;56.00;;;;;;5140404;27;20454;-82
2022/10/09 01:49:07;;;;;;;6.73;3.90;;;20.50;56.00;;;;;;5135112;27;20442;-82
2022/10/09 01:51:40;;;;;;;5.20;3.77;;;20.50;56.10;;;;;;5143684;27;20450;-82
2022/10/09 01:54:08;;;;;;;7.43;3.20;;;20.40;56.10;;;;;;5143463;27;20449;-82
2022/10/09 01:56:37;;;;;;;8.10;3.40;;;20.50;56.10;;;;;;5143328;27;20443;-82
2022/10/09 01:59:07;;;;;;;4.13;2.93;;;20.50;55.90;;;;;;5145103;27;20450;-82
2022/10/09 02:01:43;;;;;;;4.20;3.03;;;20.40;56.00;;;;;;5139894;27;20470;-83
2022/10/09 02:04:12;;;;;;;4.03;3.30;;;20.40;56.00;;;;;;5132769;27;20444;-84
2022/10/09 02:06:40;;;;;;;5.93;3.50;;;20.40;56.30;;;;;;5135383;27;20446;-82
2022/10/09 02:09:11;;;;;;;6.07;3.40;;;20.40;56.10;;;;;;5131866;27;20454;-85
2022/10/09 02:11:39;;;;;;;7.73;3.20;;;20.40;56.20;;;;;;5146038;27;20526;-84
2022/10/09 02:14:07;;;;;;;6.90;3.30;;;20.30;56.10;;;;;;5142349;27;20450;-84
2022/10/09 02:16:37;;;;;;;3.83;2.90;;;20.40;56.20;;;;;;5147198;27;20425;-82
2022/10/09 02:19:09;;;;;;;4.53;3.03;;;20.30;56.20;;;;;;5141906;27;20456;-84
2022/10/09 02:21:39;;;;;;;4.80;3.43;;;20.30;56.10;;;;;;5143211;27;20471;-83
2022/10/09 02:24:15;;;;;;;4.60;3.10;;;20.30;56.30;;;;;;5143177;27;20534;-84
2022/10/09 02:26:44;;;;;;;4.23;3.07;;;20.30;56.10;;;;;;5148770;27;20988;-83
2022/10/09 02:29:12;;;;;;;3.27;2.70;;;20.30;56.40;;;;;;5141933;27;20451;-84
2022/10/09 02:31:41;;;;;;;2.90;2.70;;;20.20;56.30;;;;;;5142957;27;20463;-84
2022/10/09 02:34:11;;;;;;;2.90;2.70;;;20.20;56.20;;;;;;5142038;27;20466;-84
2022/10/09 02:36:39;;;;;;;4.10;2.80;;;20.20;56.30;;;;;;5144728;27;20454;-83
2022/10/09 02:39:07;;;;;;;6.43;2.47;;;20.20;56.40;;;;;;5152192;27;20441;-84
2022/10/09 02:41:35;;;;;;;10.33;2.63;;;20.20;56.30;;;;;;5152216;27;20477;-85
2022/10/09 02:44:03;;;;;;;4.00;3.17;;;20.20;56.30;;;;;;5152626;27;20435;-83
2022/10/09 02:46:31;;;;;;;3.30;2.40;;;20.20;56.90;;;;;;5152519;27;20434;-80
2022/10/09 02:48:59;;;;;;;3.67;3.07;;;20.20;56.30;;;;;;5151972;27;20412;-81
2022/10/09 02:51:28;;;;;;;3.13;2.60;;;20.10;56.00;;;;;;5148069;27;20462;-81
2022/10/09 02:53:58;;;;;;;4.57;2.40;;;20.10;56.20;;;;;;5136791;27;20447;-81
2022/10/09 02:56:26;;;;;;;6.70;2.50;;;20.10;56.30;;;;;;5139915;27;20435;-82
2022/10/09 02:58:54;;;;;;;3.07;2.40;;;20.10;56.50;;;;;;5134449;27;20453;-82
2022/10/09 03:01:22;;;;;;;3.73;3.33;;;20.10;56.10;;;;;;5141414;27;20478;-82
2022/10/09 03:03:50;;;;;;;4.93;2.80;;;20.00;56.50;;;;;;5134284;27;20450;-82
2022/10/09 03:06:19;;;;;;;4.20;2.83;;;20.00;56.40;;;;;;5139474;27;20451;-82
2022/10/09 03:08:49;;;;;;;3.57;2.97;;;20.10;56.30;;;;;;5141282;27;20450;-83
2022/10/09 03:11:18;;;;;;;3.30;2.57;;;20.00;56.40;;;;;;5141694;27;20467;-83
2022/10/09 03:13:46;;;;;;;3.93;2.93;;;20.00;56.50;;;;;;5141711;27;20443;-83
2022/10/09 03:16:15;;;;;;;5.67;2.57;;;20.00;56.50;;;;;;5126958;27;20458;-82
2022/10/09 03:18:44;;;;;;;3.70;2.73;;;20.00;56.70;;;;;;5141553;27;21006;-82
2022/10/09 03:21:13;;;;;;;3.87;2.80;;;19.90;56.60;;;;;;5140092;27;20458;-82
2022/10/09 03:23:41;;;;;;;4.40;2.90;;;19.90;56.60;;;;;;5140357;27;20443;-83
2022/10/09 03:26:12;;;;;;;5.27;2.93;;;20.00;56.60;;;;;;5142806;27;20458;-82
2022/10/09 03:28:41;;;;;;;2.83;2.57;;;19.90;56.70;;;;;;5145906;27;20439;-83
2022/10/09 03:31:10;;;;;;;4.23;2.87;;;19.90;56.50;;;;;;5150449;27;20487;-82
2022/10/09 03:33:58;;;;;;;3.00;2.80;;;19.90;56.60;;;;;;5143279;27;20444;-82
2022/10/09 03:36:26;;;;;;;4.17;2.57;;;19.90;56.70;;;;;;5144784;27;20447;-83
2022/10/09 03:38:54;;;;;;;2.90;2.70;;;19.80;56.70;;;;;;5140964;27;20450;-83
2022/10/09 03:41:24;;;;;;;2.80;2.60;;;19.80;56.90;;;;;;5151393;27;20474;-83
2022/10/09 03:43:51;;;;;;;3.50;2.63;;;19.80;56.70;;;;;;5148626;27;20574;-82
2022/10/09 03:46:19;;;;;;;5.13;2.80;;;19.80;56.80;;;;;;5151457;27;20427;-82
2022/10/09 03:48:47;;;;;;;2.87;2.67;;;19.80;56.60;;;;;;5150899;27;20447;-84
2022/10/09 03:51:15;;;;;;;3.20;2.50;;;19.80;56.90;;;;;;5151230;27;20461;-83
2022/10/09 03:53:43;;;;;;;2.70;2.50;;;19.80;56.90;;;;;;5148644;27;20443;-82
2022/10/09 03:56:11;;;;;;;3.67;2.70;;;19.80;56.70;;;;;;5139163;27;20535;-83
2022/10/09 03:58:40;;;;;;;3.63;2.50;;;19.80;56.70;;;;;;5141398;27;20447;-84
2022/10/09 04:01:08;;;;;;;4.83;3.13;;;19.70;56.90;;;;;;5145714;27;20470;-85
2022/10/09 04:03:36;;;;;;;6.03;2.70;;;19.70;56.80;;;;;;5137995;27;20450;-83
2022/10/09 04:06:04;;;;;;;5.13;2.93;;;19.70;56.70;;;;;;5145576;27;20451;-84
2022/10/09 04:08:31;;;;;;;3.27;2.47;;;19.70;57.00;;;;;;5143725;27;20449;-83
2022/10/09 04:11:00;;;;;;;4.90;2.57;;;19.70;56.80;;;;;;5137460;27;20487;-83
2022/10/09 04:13:27;;;;;;;2.47;2.27;;;19.70;56.70;;;;;;5140707;27;20473;-84
2022/10/09 04:15:57;;;;;;;2.90;2.60;;;19.60;56.80;;;;;;5145691;27;20451;-83
2022/10/09 04:18:25;;;;;;;4.70;2.83;;;19.60;56.90;;;;;;5146216;27;20455;-83
2022/10/09 04:20:55;;;;;;;2.73;2.43;;;19.60;57.00;;;;;;5138252;27;20467;-82
2022/10/09 04:23:24;;;;;;;4.07;2.80;;;19.60;57.10;;;;;;5140488;27;20473;-83
2022/10/09 04:25:53;;;;;;;3.10;2.63;;;19.60;57.00;;;;;;5134897;27;20461;-82
2022/10/09 04:28:22;;;;;;;3.17;2.40;;;19.60;57.00;;;;;;5137305;27;20457;-83
2022/10/09 04:30:50;;;;;;;4.27;2.73;;;19.60;57.00;;;;;;5138444;27;20478;-83
2022/10/09 04:33:19;;;;;;;3.30;2.87;;;19.50;56.90;;;;;;5134936;27;20440;-83
2022/10/09 04:35:50;;;;;;;4.47;2.83;;;19.50;57.00;;;;;;5137598;27;20450;-82
2022/10/09 04:38:18;;;;;;;3.00;2.70;;;19.50;56.80;;;;;;5125934;27;20451;-83
2022/10/09 04:40:55;;;;;;;4.10;2.60;;;19.40;57.10;;;;;;5125200;27;20425;-83
2022/10/09 04:43:23;;;;;;;5.20;2.70;;;19.50;57.20;;;;;;5128866;27;20527;-83
2022/10/09 04:45:51;;;;;;;3.77;2.53;;;19.50;57.20;;;;;;5137900;27;20455;-84
2022/10/09 04:48:20;;;;;;;3.07;2.77;;;19.50;57.20;;;;;;5130947;27;20444;-84
2022/10/09 04:50:48;;;;;;;3.73;2.50;;;19.50;57.10;;;;;;5145416;27;20475;-83
2022/10/09 04:53:16;;;;;;;3.43;2.60;;;19.50;57.10;;;;;;5141210;27;20415;-84
2022/10/09 04:55:44;;;;;;;3.00;2.70;;;19.40;57.00;;;;;;5145747;27;20454;-84
2022/10/09 04:58:13;;;;;;;2.83;2.50;;;19.40;57.00;;;;;;5146397;27;20463;-83
2022/10/09 05:00:41;;;;;;;2.60;2.40;;;19.40;57.20;;;;;;5143199;27;20447;-85
2022/10/09 05:03:09;;;;;;;3.67;2.77;;;19.40;57.10;;;;;;5150334;28;20463;-84
2022/10/09 05:05:39;;;;;;;2.43;2.23;;;19.30;57.00;;;;;;5146863;28;20451;-82
2022/10/09 05:08:07;;;;;;;3.20;2.90;;;19.40;57.20;;;;;;5145098;28;20455;-84
2022/10/09 05:10:35;;;;;;;2.90;2.70;;;19.30;57.10;;;;;;5150880;28;20446;-84
2022/10/09 05:13:03;;;;;;;5.07;2.63;;;19.30;57.30;;;;;;5148939;28;20439;-84
2022/10/09 05:15:31;;;;;;;2.50;2.30;;;19.30;57.00;;;;;;5147341;27;20462;-83
2022/10/09 05:17:59;;;;;;;3.20;2.30;;;19.30;57.30;;;;;;5148665;27;20447;-84
2022/10/09 05:20:26;;;;;;;3.07;2.73;;;19.30;57.30;;;;;;5136350;27;20447;-83
2022/10/09 05:22:55;;;;;;;2.50;2.30;;;19.30;57.00;;;;;;5141888;27;20461;-83
2022/10/09 05:25:23;;;;;;;3.20;2.93;;;19.30;57.40;;;;;;5142456;27;20529;-83
2022/10/09 05:27:51;;;;;;;2.90;2.50;;;19.30;57.40;;;;;;5126100;27;20459;-83
2022/10/09 05:30:19;;;;;;;2.53;2.30;;;19.30;57.40;;;;;;5122262;28;20442;-83
2022/10/09 05:32:48;;;;;;;2.70;2.47;;;19.30;57.20;;;;;;5131298;27;20467;-81
2022/10/09 05:35:16;;;;;;;3.97;2.40;;;19.20;57.30;;;;;;5136877;27;20458;-83
2022/10/09 05:37:44;;;;;;;3.20;2.57;;;19.20;57.30;;;;;;5137264;27;20451;-83
2022/10/09 05:40:13;;;;;;;2.97;2.43;;;19.20;57.40;;;;;;5126487;27;20443;-83
2022/10/09 05:42:41;;;;;;;3.97;2.30;;;19.20;57.30;;;;;;5136783;27;20470;-83
2022/10/09 05:45:10;;;;;;;4.90;2.30;;;19.20;57.30;;;;;;5140357;27;20457;-81
2022/10/09 05:47:38;;;;;;;4.30;2.60;;;19.20;57.60;;;;;;5135125;27;20454;-83
2022/10/09 05:50:06;;;;;;;3.23;2.47;;;19.20;57.60;;;;;;5135342;27;20452;-83
2022/10/09 05:52:35;;;;;;;2.93;2.47;;;19.20;57.60;;;;;;5135447;27;20464;-83
2022/10/09 05:55:03;;;;;;;3.07;2.77;;;19.20;57.60;;;;;;5141516;27;20447;-83
2022/10/09 05:57:32;;;;;;;3.90;2.37;;;19.20;57.10;;;;;;5140862;27;20469;-83
2022/10/09 06:00:00;;;;;;;2.47;2.27;;;19.10;57.50;;;;;;5129362;27;20453;-84
2022/10/09 06:02:28;;;;;;;3.40;2.67;;;19.20;57.50;;;;;;5131721;27;20478;-83
2022/10/09 06:04:56;;;;;;;2.40;2.20;;;19.20;57.40;;;;;;5126676;27;20427;-82
2022/10/09 06:07:24;;;;;;;2.53;2.33;;;19.20;57.50;;;;;;5150878;27;20426;-84
2022/10/09 06:09:52;;;;;;;2.23;1.93;;;19.10;57.20;;;;;;5149415;27;20509;-83
2022/10/09 06:12:20;;;;;;;2.40;2.20;;;19.10;57.40;;;;;;5146607;27;20530;-83
2022/10/09 06:14:50;;;;;;;2.50;2.30;;;19.10;57.40;;;;;;5152412;27;20486;-84
2022/10/09 06:17:17;;;;;;;2.77;2.50;;;19.10;57.50;;;;;;5139907;27;20423;-83
2022/10/09 06:19:45;;;;;;;2.53;2.07;;;19.10;57.60;;;;;;5153058;27;20449;-83
2022/10/09 06:22:13;;;;;;;2.90;2.40;;;19.10;57.60;;;;;;5144021;27;20470;-84
2022/10/09 06:24:41;;;;;;;2.40;2.20;;;19.10;57.60;;;;;;5151322;27;20458;-83
2022/10/09 06:27:09;;;;;;;2.47;2.27;;;19.10;57.50;;;;;;5143387;27;20450;-83
2022/10/09 06:29:37;;;;;;;3.67;2.43;;;19.10;57.60;;;;;;5138380;27;20459;-84
2022/10/09 06:32:06;;;;;;;6.20;1.93;;;19.10;57.50;;;;;;5137663;27;20474;-84
2022/10/09 06:34:34;;;;;;;2.83;2.20;;;19.10;57.60;;;;;;5145855;27;20467;-83
2022/10/09 06:37:02;;;;;;;2.60;2.10;;;19.10;57.50;;;;;;5145998;27;20447;-83
2022/10/09 06:39:30;;;;;;;2.80;2.13;;;19.10;57.30;;;;;;5144929;27;20447;-83
2022/10/09 06:41:58;;;;;;;3.13;2.40;;;19.10;57.50;;;;;;5148448;27;20506;-83
2022/10/09 06:44:26;;;;;;;2.13;2.03;;;19.10;57.40;;;;;;5147578;27;20478;-83
2022/10/09 06:46:53;;;;;;;2.33;2.20;;;19.10;57.30;;;;;;5139960;27;20450;-83
2022/10/09 06:49:23;;;;;;;3.87;2.20;;;19.10;57.40;;;;;;5149681;27;20433;-82
2022/10/09 06:51:51;;;;;;;2.03;1.93;;;19.10;57.50;;;;;;5149077;27;20463;-83
2022/10/09 06:54:19;;;;;;;2.47;2.27;;;19.10;57.20;;;;;;5150519;27;20447;-84
2022/10/09 06:56:47;;;;;;;2.50;2.30;;;19.10;57.20;;;;;;5150418;27;20443;-84
2022/10/09 06:59:15;;;;;;;2.70;2.50;;;19.10;57.10;;;;;;5154611;27;20430;-86
2022/10/09 07:01:43;;;;;;;3.07;2.30;;;19.10;57.10;;;;;;5151761;27;20637;-84
2022/10/09 07:04:13;;;;;;;2.50;2.30;;;19.10;57.30;;;;;;5139696;27;20498;-85
2022/10/09 07:06:43;;;;;;;2.23;2.03;;;19.10;58.00;;;;;;5136599;27;20430;-82
2022/10/09 07:09:12;;;;;;;2.40;2.03;;;19.10;57.40;;;;;;5152754;27;20446;-84
2022/10/09 07:11:41;;;;;;;3.17;2.33;;;19.10;57.40;;;;;;5153313;27;20455;-83
2022/10/09 07:14:10;;;;;;;2.60;2.40;;;19.10;57.20;;;;;;5152485;27;20435;-83
2022/10/09 07:16:39;;;;;;;2.33;2.13;;;19.10;57.20;;;;;;5152015;27;20503;-83
2022/10/09 07:19:09;;;;;;;6.00;1.87;;;19.10;57.20;;;;;;5152574;27;20426;-84
2022/10/09 07:21:38;;;;;;;2.33;2.10;;;19.10;57.20;;;;;;5136417;27;20468;-84
2022/10/09 07:24:08;;;;;;;3.17;2.30;;;19.10;57.20;;;;;;5151519;27;20451;-83
2022/10/09 07:26:37;;;;;;;2.77;2.57;;;19.10;57.30;;;;;;5152078;27;20450;-83
2022/10/09 07:29:05;;;;;;;2.80;2.60;;;19.10;57.40;;;;;;5147689;27;20451;-83
2022/10/09 07:31:33;;;;;;;5.13;1.87;;;19.10;57.40;;;;;;5142232;27;20471;-85
2022/10/09 07:34:01;;;;;;;2.37;2.17;;;19.10;57.40;;;;;;5142717;27;20524;-84
2022/10/09 07:36:29;;;;;;;3.40;2.10;;;19.20;57.40;;;;;;5132786;27;20439;-84
2022/10/09 07:38:57;;;;;;;3.17;1.90;;;19.20;57.40;;;;;;5141508;27;20442;-83
2022/10/09 07:41:28;;;;;;;3.27;2.20;;;19.20;57.30;;;;;;5141004;27;20570;-83
2022/10/09 07:43:56;;;;;;;2.50;1.93;;;19.20;57.50;;;;;;5150827;27;20983;-83
2022/10/09 07:46:25;;;;;;;2.60;1.87;;;19.20;57.40;;;;;;5151586;27;20453;-85
2022/10/09 07:48:59;;;;;;;2.47;2.27;;;19.30;57.50;;;;;;5151486;27;20426;-83
2022/10/09 07:51:28;;;;;;;2.13;1.93;;;19.30;57.60;;;;;;5151791;27;20450;-83
2022/10/09 07:53:57;;;;;;;2.10;1.80;;;19.30;57.50;;;;;;5149394;27;20487;-83
2022/10/09 07:56:27;;;;;;;2.50;2.30;;;19.30;57.70;;;;;;5131321;28;20442;-83
2022/10/09 07:58:56;;;;;;;2.27;2.17;;;19.40;57.60;;;;;;5131616;28;20415;-83
2022/10/09 08:01:24;;;;;;;3.30;2.63;;;19.50;57.50;;;;;;5149233;27;20461;-83
2022/10/09 08:03:53;;;;;;;4.43;1.90;;;19.60;57.60;;;;;;5151678;27;20489;-83
2022/10/09 08:06:20;;;;;;;5.13;2.30;;;19.70;57.60;;;;;;5148873;27;20863;-83
2022/10/09 08:08:49;;;;;;;2.73;2.20;;;19.80;58.10;;;;;;5150538;27;20435;-83
2022/10/09 08:11:17;;;;;;;2.30;2.10;;;20.10;58.20;;;;;;5145941;27;20467;-83
2022/10/09 08:13:47;;;;;;;3.93;2.20;;;20.20;58.40;;;;;;5142470;27;20435;-85
2022/10/09 08:16:15;;;;;;;2.30;2.10;;;20.50;58.70;;;;;;5138032;27;20453;-83
2022/10/09 08:18:43;;;;;;;3.77;2.13;;;20.70;58.70;;;;;;5142477;27;20458;-83
2022/10/09 08:21:12;;;;;;;3.33;1.60;;;20.90;59.10;;;;;;5141627;27;20467;-83
2022/10/09 08:23:40;;;;;;;2.13;1.93;;;21.10;59.30;;;;;;5142337;27;20472;-84
2022/10/09 08:26:12;;;;;;;3.67;2.00;;;21.40;59.60;;;;;;5137180;27;20439;-82
2022/10/09 08:28:40;;;;;;;1.90;1.80;;;21.60;59.60;;;;;;5144107;27;20458;-83
2022/10/09 08:31:12;;;;;;;2.90;1.50;;;21.80;59.80;;;;;;5144558;27;20470;-83
2022/10/09 08:33:41;;;;;;;1.93;1.83;;;22.00;60.00;;;;;;5142509;27;20475;-84
2022/10/09 08:36:10;;;;;;;2.07;1.97;;;22.20;60.20;;;;;;5136319;27;20471;-84
2022/10/09 08:38:38;;;;;;;2.13;1.73;;;22.40;60.20;;;;;;5138011;27;20443;-85
2022/10/09 08:41:19;;;;;;;2.80;1.70;;;22.60;60.40;;;;;;5139842;27;20600;-83
2022/10/09 08:43:48;;;;;;;2.33;1.83;;;22.80;61.10;;;;;;5142189;27;20471;-83
2022/10/09 08:46:19;;;;;;;2.40;2.13;;;23.10;60.50;;;;;;5139364;27;20453;-85
2022/10/09 08:48:48;;;;;;;2.20;1.97;;;23.20;60.60;;;;;;5134217;27;20456;-82
2022/10/09 08:51:20;;;;;;;4.00;1.50;;;23.40;60.80;;;;;;5138304;27;20463;-83
2022/10/09 08:53:51;;;;;;;2.97;2.03;;;23.70;60.80;;;;;;5136718;27;20409;-81
2022/10/09 08:56:19;;;;;;;1.80;1.50;;;23.80;60.90;;;;;;5132338;27;20462;-84
2022/10/09 08:58:48;;;;;;;4.23;1.90;;;24.00;60.80;;;;;;5137842;27;20447;-81
2022/10/09 09:01:21;;;;;;;2.43;1.73;;;24.20;60.80;;;;;;5134405;27;20467;-83
2022/10/09 09:03:56;;;;;;;6.33;2.07;;;24.40;60.90;;;;;;5134860;28;20434;-83
2022/10/09 09:06:29;;;;;;;2.50;1.80;;;24.70;60.50;;;;;;5136936;28;20421;-83
2022/10/09 09:09:01;;;;;;;5.93;1.90;;;24.90;60.20;;;;;;5133818;28;20414;-83
2022/10/09 09:11:34;;;;;;;3.37;2.07;;;25.10;60.10;;;;;;5133445;28;20445;-83
2022/10/09 09:14:10;;;;;;;2.40;1.80;;;25.30;59.50;;;;;;5141041;28;20454;-82
2022/10/09 09:16:43;;;;;;;5.03;2.13;;;25.60;59.30;;;;;;5134423;28;20424;-83
2022/10/09 09:19:24;;;;;;;4.47;1.93;;;25.80;58.80;;;;;;5131951;28;20447;-80
2022/10/09 09:21:52;;;;;;;2.27;1.80;;;26.00;58.50;;;;;;5137034;28;20462;-84
2022/10/09 09:24:21;;;;;;;8.90;1.73;;;26.20;58.00;;;;;;5129170;28;20453;-82
2022/10/09 09:26:50;;;;;;;3.03;2.03;;;26.40;57.60;;;;;;5130476;28;20478;-82
2022/10/09 09:29:23;;;;;;;3.57;1.80;;;26.60;57.10;;;;;;5131559;28;21137;-82
2022/10/09 09:31:55;;;;;;;2.90;1.70;;;26.80;56.80;;;;;;5129623;28;20478;-84
2022/10/09 09:34:25;;;;;;;3.00;1.80;;;27.00;56.30;;;;;;5121444;28;20418;-82
2022/10/09 09:36:54;;;;;;;2.97;1.80;;;27.20;55.80;;;;;;5134949;28;20437;-82
2022/10/09 09:39:23;;;;;;;3.53;1.67;;;27.40;55.40;;;;;;5145643;28;20416;-81
2022/10/09 09:42:15;;;;;;;9.13;5.37;;;27.50;54.90;;;;;;5132792;28;20409;-82
2022/10/09 09:44:46;;;;;;;7.77;4.00;;;22.50;45.00;;;;;;5128501;28;20473;-80
2022/10/09 09:47:20;;;;;;;6.20;2.27;;;21.40;55.50;;;;;;5120087;28;20444;-81
2022/10/09 09:49:56;;;;;;;5.43;2.43;;;22.90;53.70;;;;;;5116523;28;20428;-80
2022/10/09 09:52:24;;;;;;;6.10;2.40;;;24.00;51.30;;;;;;5120954;28;20462;-81
2022/10/09 09:54:52;;;;;;;6.03;2.07;;;24.80;50.00;;;;;;5124216;28;20460;-81
2022/10/09 09:57:27;;;;;;;4.50;1.87;;;25.40;48.90;;;;;;5129358;28;20455;-80
2022/10/09 10:00:10;;;;;;;10.93;2.40;;;25.90;48.30;;;;;;5126113;27;20446;-81
2022/10/09 10:02:39;;;;;;;11.30;2.30;;;26.30;47.50;;;;;;5130682;27;20475;-81
2022/10/09 10:05:16;;;;;;;10.50;2.20;;;26.60;46.80;;;;;;5131904;27;20444;-81
2022/10/09 10:07:44;;;;;;;7.00;2.43;;;26.80;46.40;;;;;;5144943;27;20413;-80
2022/10/09 10:10:15;;;;;;;9.50;3.27;;;27.00;46.10;;;;;;5140576;27;20459;-81
2022/10/09 10:12:54;;;;;;;14.40;6.30;;;27.20;45.60;;;;;;5133697;27;20449;-81
2022/10/09 10:15:24;;;;;;;19.03;10.77;;;27.20;45.20;;;;;;5129304;27;20422;-81
2022/10/09 10:17:58;;;;;;;28.00;14.50;;;27.30;45.10;;;;;;5141452;27;20416;-81
2022/10/09 10:20:27;;;;;;;25.97;14.83;;;27.40;45.10;;;;;;5142357;27;20405;-80
2022/10/09 10:22:56;;;;;;;33.90;15.30;;;27.50;45.10;;;;;;5128585;27;20458;-81
2022/10/09 10:25:25;;;;;;;22.13;13.90;;;27.70;44.70;;;;;;5121107;27;20541;-79
2022/10/09 10:27:57;;;;;;;39.43;15.73;;;27.80;44.50;;;;;;5133601;27;20443;-78
2022/10/09 10:30:25;;;;;;;27.20;14.10;;;28.00;45.30;;;;;;5135038;27;20450;-81
2022/10/09 10:32:58;;;;;;;35.63;13.80;;;28.20;44.60;;;;;;5130136;27;20459;-80
2022/10/09 10:35:27;;;;;;;28.10;14.20;;;28.40;44.70;;;;;;5130421;27;20417;-80
2022/10/09 10:37:58;;;;;;;27.10;13.40;;;28.50;44.00;;;;;;5136681;27;20453;-81
2022/10/09 10:40:28;;;;;;;20.67;13.33;;;28.50;44.80;;;;;;5138866;27;20450;-81
2022/10/09 10:43:06;;;;;;;22.33;12.80;;;28.40;44.20;;;;;;5144592;27;20427;-81
2022/10/09 10:45:37;;;;;;;22.03;13.10;;;28.50;44.40;;;;;;5143527;27;20463;-81
2022/10/09 10:48:08;;;;;;;27.17;13.80;;;28.50;44.20;;;;;;5124078;27;20426;-80
2022/10/09 10:50:41;;;;;;;18.03;11.70;;;28.50;44.40;;;;;;5140650;27;20405;-82
2022/10/09 10:53:13;;;;;;;22.80;12.30;;;28.60;44.30;;;;;;5133083;27;20431;-83
2022/10/09 10:55:47;;;;;;;23.23;11.80;;;28.60;44.20;;;;;;5143307;27;20438;-82
2022/10/09 10:58:25;;;;;;;16.90;10.17;;;28.60;44.10;;;;;;5144938;27;20439;-82
2022/10/09 11:01:00;;;;;;;16.57;10.43;;;28.60;43.90;;;;;;5136127;27;20447;-82
2022/10/09 11:03:37;;;;;;;13.97;6.30;;;28.60;44.10;;;;;;5140101;27;20454;-82
2022/10/09 11:06:07;;;;;;;9.23;4.40;;;28.50;41.30;;;;;;5145182;27;20455;-82
2022/10/09 11:08:50;;;;;;;7.40;4.13;;;28.40;40.00;;;;;;5137120;27;20426;-81
2022/10/09 11:11:21;;;;;;;9.37;3.97;;;28.20;39.40;;;;;;5138643;27;20417;-81
2022/10/09 11:13:54;;;;;;;5.70;2.97;;;28.10;38.50;;;;;;5135390;27;20410;-80
2022/10/09 11:16:31;;;;;;;5.33;2.60;;;27.80;38.50;;;;;;5136409;27;20506;-81
2022/10/09 11:19:20;;;;;;;8.20;2.20;;;27.70;37.10;;;;;;5131520;27;20439;-80
2022/10/09 11:21:55;;;;;;;3.90;1.90;;;27.30;37.40;;;;;;5140492;27;20467;-81
2022/10/09 11:24:44;;;;;;;4.60;2.03;;;27.00;37.20;;;;;;5139949;27;20417;-80
2022/10/09 11:27:13;;;;;;;4.60;1.90;;;26.90;37.70;;;;;;5120871;28;20434;-80
2022/10/09 11:29:43;;;;;;;3.30;1.90;;;26.80;36.20;;;;;;5123405;27;20422;-80
2022/10/09 11:32:13;;;;;;;5.23;1.70;;;26.70;37.00;;;;;;5133703;27;20450;-79
2022/10/09 11:34:44;;;;;;;9.67;5.17;;;26.40;36.40;;;;;;5131876;27;20421;-80
2022/10/09 11:37:14;;;;;;;5.80;3.13;;;26.30;37.20;;;;;;5137584;27;20439;-80
2022/10/09 11:39:42;;;;;;;6.60;3.17;;;26.50;37.40;;;;;;5134116;27;20448;-80
2022/10/09 11:42:10;;;;;;;7.13;2.30;;;26.70;36.20;;;;;;5139681;27;20433;-80
2022/10/09 11:44:41;;;;;;;4.50;2.37;;;26.50;36.80;;;;;;5136805;27;20817;-81
2022/10/09 11:47:12;;;;;;;6.43;2.00;;;26.20;36.40;;;;;;5135389;27;20459;-81
2022/10/09 11:49:50;;;;;;;5.93;2.60;;;26.20;37.60;;;;;;5130003;27;20945;-81
2022/10/09 11:52:21;;;;;;;5.13;2.43;;;26.60;38.40;;;;;;5141597;27;20520;-81
2022/10/09 11:54:49;;;;;;;5.27;2.70;;;26.90;37.00;;;;;;5130252;27;20451;-80
2022/10/09 11:57:26;;;;;;;5.70;2.03;;;27.00;37.10;;;;;;5135359;27;20435;-79
2022/10/09 12:00:04;;;;;;;4.50;2.10;;;26.80;37.00;;;;;;5133215;27;20425;-80
2022/10/09 12:02:32;;;;;;;3.03;2.03;;;26.90;36.30;;;;;;5136695;27;20466;-80
2022/10/09 12:05:02;;;;;;;6.30;2.27;;;27.00;36.30;;;;;;5131113;27;20504;-80
2022/10/09 12:07:32;;;;;;;2.27;1.50;;;27.00;35.20;;;;;;5133330;27;20848;-81
2022/10/09 12:10:02;;;;;;;5.13;1.90;;;27.10;35.80;;;;;;5136091;27;20417;-79
2022/10/09 12:12:30;;;;;;;3.07;1.50;;;27.10;35.10;;;;;;5137566;27;20444;-83
2022/10/09 12:15:00;;;;;;;2.70;1.47;;;27.20;34.30;;;;;;5133113;27;20427;-77
2022/10/09 12:17:34;;;;;;;10.80;3.80;;;27.50;35.00;;;;;;5129072;27;20534;-78
2022/10/09 12:20:06;;;;;;;10.70;2.40;;;27.70;33.20;;;;;;5136640;27;20429;-80
2022/10/09 12:22:35;;;;;;;5.50;2.40;;;27.20;33.50;;;;;;5135612;27;20466;-78
2022/10/09 12:25:06;;;;;;;3.63;2.07;;;27.30;33.90;;;;;;5135040;27;20434;-77
2022/10/09 12:27:35;;;;;;;6.93;2.03;;;27.20;33.80;;;;;;5135171;27;20469;-77
2022/10/09 12:30:07;;;;;;;3.77;1.93;;;27.60;34.30;;;;;;5131896;27;20417;-78
2022/10/09 12:32:36;;;;;;;3.93;2.90;;;27.70;34.40;;;;;;5129725;27;20494;-78
2022/10/09 12:35:15;;;;;;;3.80;2.43;;;27.90;34.00;;;;;;5133918;27;20457;-80
2022/10/09 12:37:43;;;;;;;4.17;2.20;;;27.80;33.80;;;;;;5128008;27;20937;-77
2022/10/09 12:40:15;;;;;;;3.33;2.20;;;27.80;34.30;;;;;;5125363;27;20443;-78
2022/10/09 12:42:43;;;;;;;2.30;1.60;;;27.40;33.50;;;;;;5117114;28;20472;-79
2022/10/09 12:45:15;;;;;;;6.67;3.23;;;27.20;35.20;;;;;;5122044;27;20461;-81
2022/10/09 12:47:43;;;;;;;6.53;2.57;;;27.10;33.90;;;;;;5133804;27;20441;-82
2022/10/09 12:50:23;;;;;;;10.53;2.20;;;27.10;34.40;;;;;;5134309;27;20485;-80
2022/10/09 12:52:51;;;;;;;4.97;2.00;;;27.10;34.70;;;;;;5131172;27;20452;-82
2022/10/09 12:55:25;;;;;;;4.80;1.60;;;27.00;34.00;;;;;;5136338;27;20446;-81
2022/10/09 12:57:53;;;;;;;1.80;1.70;;;27.10;34.10;;;;;;5136364;27;20426;-82
2022/10/09 13:00:21;;;;;;;2.00;1.80;;;27.20;33.60;;;;;;5133259;27;20422;-81